createdAt,value
2022-12-04T00:03:24.019Z,67.2
2022-12-04T00:05:26.881Z,45.7
2022-12-04T00:07:33.080Z,38
2022-12-04T00:09:35.995Z,40.5
2022-12-04T00:11:38.937Z,37.5
2022-12-04T00:13:41.896Z,48
2022-12-04T00:15:44.828Z,48.4
2022-12-04T00:17:47.807Z,48.6
2022-12-04T00:19:50.731Z,40.6
2022-12-04T00:21:56.875Z,46
2022-12-04T00:26:02.804Z,42.2
2022-12-04T00:28:05.750Z,62.9
2022-12-04T00:30:08.675Z,38.9
2022-12-04T00:32:11.629Z,41.9
2022-12-04T00:34:14.594Z,48.2
2022-12-04T00:36:20.746Z,45.4
2022-12-04T00:38:23.710Z,39
2022-12-04T00:40:26.641Z,37
2022-12-04T00:41:29.734Z,33.9
2022-12-04T00:43:32.695Z,52.2
2022-12-04T00:45:35.677Z,44.7
2022-12-04T00:47:38.581Z,42.7
2022-12-04T00:49:44.738Z,34.1
2022-12-04T00:51:47.699Z,42.7
2022-12-04T00:53:50.687Z,46.1
2022-12-04T00:55:53.659Z,40.5
2022-12-04T00:57:59.894Z,41.6
2022-12-04T00:59:59.552Z,56.3
2022-12-04T01:02:02.495Z,60.1
2022-12-04T01:04:08.664Z,36.7
2022-12-04T01:06:11.611Z,36.7
2022-12-04T01:08:14.686Z,50.4
2022-12-04T01:10:17.512Z,35.2
2022-12-04T01:12:20.922Z,46.1
2022-12-04T01:14:23.440Z,33.9
2022-12-04T01:16:26.443Z,53.3
2022-12-04T01:18:32.550Z,38.2
2022-12-04T01:20:35.529Z,54.9
2022-12-04T01:22:38.455Z,51.5
2022-12-04T01:24:41.425Z,41.3
2022-12-04T01:26:44.402Z,38.2
2022-12-04T01:28:47.309Z,32.4
2022-12-04T01:30:50.276Z,52.9
2022-12-04T01:32:56.457Z,42.7
2022-12-04T01:34:59.412Z,43.3
2022-12-04T01:37:02.356Z,38.9
2022-12-04T01:38:05.450Z,50.4
2022-12-04T01:40:08.374Z,48.9
2022-12-04T01:42:11.319Z,40.6
2022-12-04T01:44:14.305Z,40.4
2022-12-04T01:48:23.409Z,49
2022-12-04T01:50:26.349Z,37.8
2022-12-04T01:52:29.324Z,36.9
2022-12-04T01:54:32.270Z,47.9
2022-12-04T01:56:35.279Z,49.5
2022-12-04T01:58:38.204Z,44.1
2022-12-04T02:00:48.395Z,40.8
2022-12-04T02:02:47.396Z,37.6
2022-12-04T02:04:50.236Z,40.3
2022-12-04T02:06:53.211Z,46.5
2022-12-04T02:08:56.174Z,43.5
2022-12-04T02:10:59.095Z,44.4
2022-12-04T02:13:02.047Z,52.6
2022-12-04T02:15:08.225Z,56.3
2022-12-04T02:17:11.179Z,52.4
2022-12-04T02:19:14.132Z,39.1
2022-12-04T02:21:17.071Z,53.5
2022-12-04T02:23:20.008Z,42.9
2022-12-04T02:25:22.968Z,38.5
2022-12-04T02:27:26.013Z,48.4
2022-12-04T02:29:32.108Z,51.1
2022-12-04T02:31:35.039Z,39.7
2022-12-04T02:33:37.987Z,38.2
2022-12-04T02:36:02.011Z,29
2022-12-04T02:38:04.956Z,41.1
2022-12-04T02:40:07.901Z,36.6
2022-12-04T02:42:14.075Z,54.1
2022-12-04T02:44:17.023Z,34.9
2022-12-04T02:46:20.054Z,35
2022-12-04T02:48:22.936Z,30.9
2022-12-04T02:50:25.877Z,37.5
2022-12-04T02:52:28.825Z,32.2
2022-12-04T02:54:31.789Z,34
2022-12-04T02:56:37.961Z,30.1
2022-12-04T02:58:40.886Z,29.7
2022-12-04T03:00:43.866Z,29.1
2022-12-04T03:02:46.873Z,31
2022-12-04T03:04:49.768Z,35.4
2022-12-04T03:06:52.709Z,31.9
2022-12-04T03:08:55.658Z,31.5
2022-12-04T03:11:01.843Z,30.5
2022-12-04T03:13:04.767Z,29.7
2022-12-04T03:15:07.737Z,32.7
2022-12-04T03:17:10.805Z,33.1
2022-12-04T03:19:13.637Z,32.7
2022-12-04T03:21:16.573Z,32.2
2022-12-04T03:23:19.531Z,31.8
2022-12-04T03:25:25.702Z,30.8
2022-12-04T03:29:31.580Z,28.2
2022-12-04T03:30:34.678Z,33
2022-12-04T03:32:37.599Z,32
2022-12-04T03:34:40.570Z,32.2
2022-12-04T03:36:43.512Z,36.3
2022-12-04T03:38:49.669Z,33.4
2022-12-04T03:40:52.626Z,35.4
2022-12-04T03:42:55.576Z,29.6
2022-12-04T03:44:58.556Z,31.9
2022-12-04T03:47:01.464Z,33.5
2022-12-04T03:51:07.332Z,29.5
2022-12-04T03:57:21.006Z,34.1
2022-12-04T04:01:26.925Z,29.2
2022-12-04T04:03:29.844Z,33.4
2022-12-04T04:05:32.796Z,33.3
2022-12-04T04:07:39.044Z,34.3
2022-12-04T04:09:41.871Z,28
2022-12-04T04:11:44.817Z,29.9
2022-12-04T04:13:47.783Z,30.5
2022-12-04T04:15:50.792Z,31
2022-12-04T04:17:53.651Z,34.8
2022-12-04T04:22:02.803Z,31.5
2022-12-04T04:24:05.704Z,33.6
2022-12-04T04:26:08.646Z,30.2
2022-12-04T04:27:11.749Z,34.1
2022-12-04T04:29:14.696Z,28.4
2022-12-04T04:31:17.647Z,32.1
2022-12-04T04:33:20.557Z,34.1
2022-12-04T04:35:26.723Z,32.6
2022-12-04T04:37:29.668Z,28.8
2022-12-04T04:39:32.600Z,31.1
2022-12-04T04:45:41.436Z,33.6
2022-12-04T04:47:44.377Z,28.8
2022-12-04T04:49:50.516Z,32.7
2022-12-04T04:51:53.462Z,32.7
2022-12-04T04:55:59.343Z,30.6
2022-12-04T04:58:02.315Z,29.7
2022-12-04T05:00:05.212Z,32.7
2022-12-04T05:02:08.204Z,29.5
2022-12-04T05:04:14.349Z,31.5
2022-12-04T05:06:17.289Z,27.1
2022-12-04T05:08:20.315Z,27.6
2022-12-04T05:10:23.158Z,29.6
2022-12-04T05:12:26.118Z,26
2022-12-04T05:14:29.062Z,29.2
2022-12-04T05:16:32.109Z,32
2022-12-04T05:18:38.147Z,31.5
2022-12-04T05:20:41.108Z,29.2
2022-12-04T05:22:44.064Z,31.4
2022-12-04T05:25:50.138Z,28.5
2022-12-04T05:27:53.057Z,32.8
2022-12-04T05:29:56.334Z,31.2
2022-12-04T05:32:02.163Z,30.8
2022-12-04T05:38:11.002Z,27.5
2022-12-04T05:40:13.933Z,28.6
2022-12-04T05:42:16.898Z,23.7
2022-12-04T05:44:19.828Z,29.5
2022-12-04T05:50:31.878Z,26.5
2022-12-04T05:52:34.825Z,28.4
2022-12-04T05:54:37.788Z,29.6
2022-12-04T05:56:40.722Z,30.4
2022-12-04T05:58:43.671Z,25.8
2022-12-04T06:00:49.818Z,25.8
2022-12-04T06:02:52.806Z,26.1
2022-12-04T06:04:55.739Z,25.8
2022-12-04T06:06:58.650Z,28.6
2022-12-04T06:09:01.619Z,30.6
2022-12-04T06:11:04.519Z,30.1
2022-12-04T06:13:07.506Z,30
2022-12-04T06:15:13.634Z,32.8
2022-12-04T06:17:16.585Z,28.8
2022-12-04T06:19:19.524Z,31.7
2022-12-04T06:21:43.590Z,29.2
2022-12-04T06:25:49.508Z,31.4
2022-12-04T06:27:55.661Z,25.9
2022-12-04T06:34:04.494Z,26.1
2022-12-04T06:36:07.444Z,33.2
2022-12-04T06:38:10.400Z,29
2022-12-04T06:40:13.342Z,32.6
2022-12-04T06:42:19.523Z,34.1
2022-12-04T06:44:22.460Z,32.2
2022-12-04T06:46:25.459Z,28.9
2022-12-04T06:48:28.340Z,30.4
2022-12-04T06:50:31.273Z,30.1
2022-12-04T06:52:34.231Z,30.1
2022-12-04T06:54:37.659Z,31.7
2022-12-04T06:58:46.776Z,30.8
2022-12-04T07:00:49.734Z,29.6
2022-12-04T07:02:52.735Z,35.4
2022-12-04T07:04:55.617Z,28
2022-12-04T07:06:58.583Z,26.7
2022-12-04T07:09:01.506Z,30.1
2022-12-04T07:11:07.658Z,34.1
2022-12-04T07:15:13.566Z,30.1
2022-12-04T07:16:16.706Z,26.9
2022-12-04T07:18:19.593Z,30.4
2022-12-04T07:20:22.617Z,29.3
2022-12-04T07:22:25.504Z,31.1
2022-12-04T07:24:31.664Z,33
2022-12-04T07:30:40.528Z,30.4
2022-12-04T07:32:43.484Z,29
2022-12-04T07:38:55.522Z,30.7
2022-12-04T07:40:58.486Z,28.1
2022-12-04T07:43:01.444Z,31.3
2022-12-04T07:45:04.383Z,28.3
2022-12-04T07:49:10.295Z,27.6
2022-12-04T07:51:13.221Z,28.3
2022-12-04T07:53:19.401Z,27.9
2022-12-04T07:55:23.421Z,28.4
2022-12-04T07:57:25.287Z,29.6
2022-12-04T07:59:28.210Z,30.3
2022-12-04T08:01:31.405Z,31.4
2022-12-04T08:03:34.117Z,30.4
2022-12-04T08:05:37.051Z,28.4
2022-12-04T08:07:43.412Z,30.9
2022-12-04T08:09:46.199Z,26.5
2022-12-04T08:11:49.101Z,30
2022-12-04T08:12:52.208Z,29.9
2022-12-04T08:19:01.013Z,27.6
2022-12-04T08:21:07.180Z,31
2022-12-04T08:25:13.043Z,32.3
2022-12-04T08:27:15.983Z,30.6
2022-12-04T08:29:18.922Z,31.9
2022-12-04T08:31:21.939Z,29.2
2022-12-04T08:35:30.946Z,30.1
2022-12-04T08:41:39.779Z,27.9
2022-12-04T08:43:42.696Z,26.1
2022-12-04T08:49:54.948Z,26.9
2022-12-04T09:06:21.468Z,22.3
2022-12-04T09:08:24.421Z,24.7
2022-12-04T09:09:27.483Z,21.5
2022-12-04T09:11:30.471Z,27.5
2022-12-04T09:13:33.372Z,23.3
2022-12-04T09:15:36.332Z,23.1
2022-12-04T09:17:42.462Z,25
2022-12-04T09:19:45.438Z,17.5
2022-12-04T09:21:48.360Z,22.2
2022-12-04T09:23:51.303Z,20.9
2022-12-04T09:25:54.230Z,17.3
2022-12-04T09:27:57.181Z,18.1
2022-12-04T09:30:00.168Z,14.8
2022-12-04T09:32:06.286Z,20.4
2022-12-04T09:34:09.240Z,17
2022-12-04T09:36:12.207Z,20.1
2022-12-04T09:38:15.134Z,18
2022-12-04T09:40:18.063Z,17.3
2022-12-04T09:42:21.015Z,18.8
2022-12-04T09:44:23.958Z,17.6
2022-12-04T09:46:30.238Z,17.4
2022-12-04T09:48:33.075Z,17.1
2022-12-04T09:50:36.054Z,18.7
2022-12-04T09:52:40.567Z,18
2022-12-04T09:54:43.460Z,15.6
2022-12-04T09:56:46.439Z,16
2022-12-04T09:58:49.381Z,17.1
2022-12-04T10:00:55.568Z,13.8
2022-12-04T10:02:58.608Z,17
2022-12-04T10:05:01.469Z,16.2
2022-12-04T10:07:25.615Z,16.5
2022-12-04T10:11:32.968Z,13.7
2022-12-04T10:13:37.674Z,13.9
2022-12-04T10:15:40.678Z,15.9
2022-12-04T10:17:43.653Z,13.2
2022-12-04T10:19:46.563Z,12.6
2022-12-04T10:21:49.509Z,12.7
2022-12-04T10:23:52.467Z,14.4
2022-12-04T10:25:55.426Z,11.8
2022-12-04T10:28:01.603Z,13.1
2022-12-04T10:30:04.598Z,12.1
2022-12-04T10:32:07.523Z,12.3
2022-12-04T10:34:10.533Z,12.2
2022-12-04T10:36:13.467Z,11.2
2022-12-04T10:38:16.409Z,9.4
2022-12-04T10:40:19.381Z,11.2
2022-12-04T10:42:25.531Z,13.6
2022-12-04T10:44:28.500Z,11.1
2022-12-04T10:46:31.579Z,10.1
2022-12-04T10:48:34.441Z,7.2
2022-12-04T10:50:37.439Z,12
2022-12-04T10:52:40.373Z,10.2
2022-12-04T10:54:43.293Z,9.1
2022-12-04T10:56:49.494Z,11.8
2022-12-04T10:58:52.444Z,10
2022-12-04T11:00:55.408Z,11.3
2022-12-04T11:02:03.105Z,11.7
2022-12-04T11:04:01.432Z,11.6
2022-12-04T11:06:04.394Z,11.8
2022-12-04T11:10:13.562Z,9.8
2022-12-04T11:12:16.534Z,10.4
2022-12-04T11:16:22.499Z,8.9
2022-12-04T11:18:25.424Z,11.1
2022-12-04T11:20:28.388Z,9.6
2022-12-04T11:22:31.424Z,10.3
2022-12-04T11:24:37.483Z,11.3
2022-12-04T11:26:40.480Z,10
2022-12-04T11:28:43.463Z,9.9
2022-12-04T11:30:46.390Z,9.6
2022-12-04T11:34:52.315Z,9.7
2022-12-04T11:36:55.299Z,9.3
2022-12-04T11:39:01.462Z,9.2
2022-12-04T11:41:04.393Z,10.9
2022-12-04T11:43:07.365Z,11.8
2022-12-04T11:45:10.388Z,9.2
2022-12-04T11:47:13.338Z,7.7
2022-12-04T11:49:16.267Z,8.7
2022-12-04T11:51:19.193Z,9.6
2022-12-04T11:53:25.404Z,9.7
2022-12-04T11:55:29.318Z,8.9
2022-12-04T11:57:31.324Z,9.2
2022-12-04T12:02:40.593Z,8.7
2022-12-04T12:04:43.337Z,10.7
2022-12-04T12:06:49.508Z,6.1
2022-12-04T12:08:52.477Z,10.7
2022-12-04T12:10:55.453Z,10.2
2022-12-04T12:12:58.458Z,10.5
2022-12-04T12:15:01.471Z,10.3
2022-12-04T12:17:04.395Z,10.6
2022-12-04T12:19:07.353Z,11
2022-12-04T12:21:13.511Z,11.8
2022-12-04T12:23:16.528Z,9.4
2022-12-04T12:25:19.498Z,10.5
2022-12-04T12:27:22.610Z,10
2022-12-04T12:29:25.454Z,11.6
2022-12-04T12:33:31.400Z,10
2022-12-04T12:35:37.595Z,8.2
2022-12-04T12:37:40.570Z,14.3
2022-12-04T12:39:43.538Z,11.2
2022-12-04T12:41:46.504Z,11.7
2022-12-04T12:43:49.506Z,10.8
2022-12-04T12:45:52.655Z,11.6
2022-12-04T12:47:55.467Z,11.8
2022-12-04T12:50:01.636Z,8.5
2022-12-04T12:52:04.647Z,11
2022-12-04T12:55:10.713Z,12
2022-12-04T12:57:13.659Z,12.2
2022-12-04T12:59:16.666Z,14.1
2022-12-04T13:01:19.752Z,12
2022-12-04T13:03:25.842Z,15.9
2022-12-04T13:05:28.816Z,16
2022-12-04T13:07:31.816Z,10.6
2022-12-04T13:09:34.757Z,15.5
2022-12-04T13:11:37.717Z,15
2022-12-04T13:13:40.672Z,14.7
2022-12-04T13:15:43.674Z,16.1
2022-12-04T13:17:49.835Z,19.5
2022-12-04T13:19:52.829Z,17.2
2022-12-04T13:21:55.811Z,15.2
2022-12-04T13:23:58.760Z,16.3
2022-12-04T13:26:01.742Z,18.1
2022-12-04T13:28:04.717Z,17.5
2022-12-04T13:30:07.720Z,20
2022-12-04T13:32:13.998Z,18.5
2022-12-04T13:34:16.884Z,15.4
2022-12-04T13:36:19.868Z,14.5
2022-12-04T13:38:22.814Z,16
2022-12-04T13:40:25.835Z,19.1
2022-12-04T13:42:28.792Z,16.4
2022-12-04T13:44:31.771Z,17.7
2022-12-04T13:46:37.940Z,20.3
2022-12-04T13:48:40.935Z,21.1
2022-12-04T13:50:43.899Z,18.4
2022-12-04T13:53:01.778Z,18.4
2022-12-04T13:55:04.750Z,20.1
2022-12-04T13:57:07.743Z,22.1
2022-12-04T13:59:13.921Z,21.3
2022-12-04T14:01:16.943Z,21.2
2022-12-04T14:03:19.872Z,19.4
2022-12-04T14:05:22.848Z,20.3
2022-12-04T14:07:25.831Z,20.8
2022-12-04T14:09:28.810Z,20.3
2022-12-04T14:11:31.772Z,22.4
2022-12-04T14:13:37.941Z,23.7
2022-12-04T14:15:40.938Z,21.5
2022-12-04T14:17:43.882Z,17.3
2022-12-04T14:19:46.915Z,18.7
2022-12-04T14:21:49.846Z,21
2022-12-04T14:23:52.839Z,20.9
2022-12-04T14:25:55.758Z,18.9
2022-12-04T14:28:01.983Z,15.9
2022-12-04T14:30:04.958Z,21.3
2022-12-04T14:32:07.927Z,18.9
2022-12-04T14:34:10.895Z,19.1
2022-12-04T14:36:13.863Z,18.7
2022-12-04T14:38:16.836Z,23.9
2022-12-04T14:40:19.829Z,23
2022-12-04T14:44:29.003Z,21.3
2022-12-04T14:46:31.988Z,20.1
2022-12-04T14:47:35.057Z,20.8
2022-12-04T14:49:38.005Z,22.8
2022-12-04T14:51:40.988Z,19.5
2022-12-04T14:53:43.960Z,22.4
2022-12-04T14:55:50.152Z,22.2
2022-12-04T14:57:53.119Z,16.9
2022-12-04T14:59:56.094Z,19.9
2022-12-04T15:01:59.063Z,21.5
2022-12-04T15:04:02.052Z,21.9
2022-12-04T15:06:04.992Z,18.3
2022-12-04T15:08:08.067Z,18.8
2022-12-04T15:10:14.160Z,21.1
2022-12-04T15:12:17.141Z,19.7
2022-12-04T15:14:20.097Z,19.1
2022-12-04T15:16:23.216Z,18.1
2022-12-04T15:18:26.052Z,21.7
2022-12-04T15:20:30.489Z,18.5
2022-12-04T15:22:31.975Z,19.5
2022-12-04T15:24:38.185Z,20.1
2022-12-04T15:26:41.189Z,18.6
2022-12-04T15:30:47.199Z,17.7
2022-12-04T15:32:50.091Z,19.5
2022-12-04T15:34:53.109Z,20.9
2022-12-04T15:36:56.042Z,18.9
2022-12-04T15:41:05.217Z,20.9
2022-12-04T15:43:08.171Z,20.1
2022-12-04T15:44:11.263Z,19.6
2022-12-04T15:46:15.906Z,20
2022-12-04T15:50:21.808Z,21.3
2022-12-04T15:52:27.988Z,21
2022-12-04T15:54:30.940Z,20.3
2022-12-04T15:56:33.964Z,25
2022-12-04T15:58:36.941Z,17.6
2022-12-04T16:00:39.902Z,21
2022-12-04T16:02:42.909Z,18.9
2022-12-04T16:04:45.887Z,22.6
2022-12-04T16:06:52.123Z,17.4
2022-12-04T16:08:55.096Z,18.6
2022-12-04T16:10:58.085Z,21.3
2022-12-04T16:13:01.081Z,19.8
2022-12-04T16:15:04.079Z,19.7
2022-12-04T16:17:07.084Z,21.5
2022-12-04T16:19:10.110Z,19.6
2022-12-04T16:23:19.324Z,20.4
2022-12-04T16:25:22.330Z,19.9
2022-12-04T16:27:25.318Z,19.6
2022-12-04T16:29:28.318Z,19.2
2022-12-04T16:31:31.353Z,16.7
2022-12-04T16:33:34.304Z,16.6
2022-12-04T16:35:40.540Z,13.3
2022-12-04T16:37:43.543Z,15.4
2022-12-04T16:39:46.535Z,12.4
2022-12-04T16:40:49.649Z,16.3
2022-12-04T16:42:52.660Z,17.2
2022-12-04T16:44:56.300Z,14.3
2022-12-04T16:49:07.624Z,18.6
2022-12-04T16:51:07.903Z,19.1
2022-12-04T16:53:10.897Z,17.5
2022-12-04T16:55:13.894Z,17.5
2022-12-04T16:57:16.904Z,14.3
2022-12-04T16:59:19.958Z,17.4
2022-12-04T17:01:22.964Z,15.1
2022-12-04T17:03:29.149Z,16.2
2022-12-04T17:05:32.173Z,16.7
2022-12-04T17:07:35.197Z,15.8
2022-12-04T17:09:38.151Z,16.8
2022-12-04T17:11:41.174Z,13
2022-12-04T17:15:47.259Z,18.1
2022-12-04T17:17:53.429Z,18.6
2022-12-04T17:19:56.495Z,18.3
2022-12-04T17:21:59.450Z,23.4
2022-12-04T17:26:05.454Z,21.8
2022-12-04T17:28:08.469Z,18
2022-12-04T17:30:11.457Z,21.3
2022-12-04T17:32:17.685Z,20.7
2022-12-04T17:34:20.714Z,22.3
2022-12-04T17:36:23.711Z,23.7
2022-12-04T17:38:47.620Z,25.5
2022-12-04T17:40:50.619Z,22.8
2022-12-04T17:42:53.613Z,24.3
2022-12-04T17:44:59.952Z,24.5
2022-12-04T17:47:02.892Z,24.7
2022-12-04T17:49:07.421Z,23.5
2022-12-04T17:51:08.854Z,24.6
2022-12-04T17:53:11.860Z,24.4
2022-12-04T17:57:17.862Z,21.8
2022-12-04T18:01:27.203Z,25.7
2022-12-04T18:03:30.267Z,27.4
2022-12-04T18:05:33.114Z,25.3
2022-12-04T18:07:36.226Z,22.1
2022-12-04T18:09:39.168Z,24.3
2022-12-04T18:11:42.160Z,24.7
2022-12-04T18:13:48.406Z,27.2
2022-12-04T18:15:51.411Z,26.1
2022-12-04T18:17:54.384Z,25.2
2022-12-04T18:20:02.645Z,24.2
2022-12-04T18:22:00.418Z,25.4
2022-12-04T18:24:03.418Z,23.2
2022-12-04T18:26:06.420Z,27.3
2022-12-04T18:28:12.615Z,27.2
2022-12-04T18:30:15.605Z,24.8
2022-12-04T18:32:18.627Z,27.1
2022-12-04T18:33:21.730Z,28.7
2022-12-04T18:35:24.735Z,24.1
2022-12-04T18:37:27.726Z,19.6
2022-12-04T18:39:30.737Z,28
2022-12-04T18:41:36.956Z,27.7
2022-12-04T18:43:39.979Z,27.7
2022-12-04T18:45:43.177Z,26.5
2022-12-04T18:47:45.967Z,27.3
2022-12-04T18:49:49.045Z,25.5
2022-12-04T18:51:51.967Z,24.7
2022-12-04T18:53:54.990Z,26.8
2022-12-04T18:56:01.196Z,26
2022-12-04T19:00:07.200Z,25.7
2022-12-04T19:02:10.251Z,29.5
2022-12-04T19:04:13.233Z,25.3
2022-12-04T19:06:16.249Z,25.1
2022-12-04T19:08:19.309Z,26.1
2022-12-04T19:10:25.704Z,30.9
2022-12-04T19:12:28.435Z,30.2
2022-12-04T19:16:34.483Z,28.1
2022-12-04T19:18:37.460Z,25.9
2022-12-04T19:20:40.470Z,30.1
2022-12-04T19:22:43.489Z,27.7
2022-12-04T19:29:59.162Z,28.5
2022-12-04T19:32:01.874Z,27.6
2022-12-04T19:34:04.814Z,27.1
2022-12-04T19:36:08.850Z,26.4
2022-12-04T19:38:14.052Z,30.5
2022-12-04T19:40:17.044Z,29.6
2022-12-04T19:42:20.040Z,30
2022-12-04T19:44:48.873Z,28.6
2022-12-04T19:46:26.195Z,27.3
2022-12-04T19:48:29.053Z,29.7
2022-12-04T19:50:32.056Z,28.2
2022-12-04T19:52:38.273Z,28.3
2022-12-04T19:54:41.286Z,30.3
2022-12-04T19:56:44.285Z,26
2022-12-04T19:58:47.273Z,29.5
2022-12-04T20:00:50.353Z,31.2
2022-12-04T20:02:53.360Z,28.7
2022-12-04T20:04:56.292Z,32.1
2022-12-04T20:07:02.501Z,31.1
2022-12-04T20:09:05.493Z,29.4
2022-12-04T20:11:08.521Z,28.8
2022-12-04T20:13:11.547Z,28
2022-12-04T20:15:14.523Z,30.4
2022-12-04T20:17:17.531Z,29.6
2022-12-04T20:21:26.758Z,31
2022-12-04T20:23:29.765Z,29.3
2022-12-04T20:25:32.761Z,30.7
2022-12-04T20:28:38.912Z,29.3
2022-12-04T20:30:41.981Z,28.4
2022-12-04T20:32:44.922Z,28.6
2022-12-04T20:45:06.165Z,25.6
2022-12-04T20:47:09.163Z,29.1
2022-12-04T20:49:20.678Z,30.5
2022-12-04T20:51:18.427Z,31.7
2022-12-04T20:53:21.422Z,27.6
2022-12-04T20:55:24.406Z,32.6
2022-12-04T20:57:27.425Z,31.8
2022-12-04T20:59:30.463Z,25.9
2022-12-04T21:01:33.547Z,32.5
2022-12-04T21:03:39.658Z,31.6
2022-12-04T21:05:42.680Z,31.8
2022-12-04T21:07:45.748Z,27.3
2022-12-04T21:13:54.711Z,29
2022-12-04T21:15:57.766Z,18.9
2022-12-04T21:18:03.942Z,30.6
2022-12-04T21:20:08.023Z,31
2022-12-04T21:22:09.962Z,27
2022-12-04T21:24:39.906Z,30.6
2022-12-04T21:26:42.919Z,28.9
2022-12-04T21:28:45.931Z,29.1
2022-12-04T21:30:52.245Z,26.9
2022-12-04T21:32:55.167Z,25.5
2022-12-04T21:34:58.185Z,27
2022-12-04T21:37:01.175Z,24.1
2022-12-04T21:39:04.207Z,28.5
2022-12-04T21:41:08.823Z,25.9
2022-12-04T21:43:11.784Z,28
2022-12-04T21:45:17.997Z,26.9
2022-12-04T21:51:55.720Z,24.6
2022-12-04T21:53:30.053Z,27.3
2022-12-04T21:55:33.053Z,27
2022-12-04T21:57:36.099Z,25.7
2022-12-04T22:01:45.473Z,24.9
2022-12-04T22:05:51.378Z,26.6
2022-12-04T22:09:57.712Z,27.1
2022-12-04T22:12:00.548Z,27.9
2022-12-04T22:14:06.618Z,25
2022-12-04T22:19:15.777Z,28
2022-12-04T22:21:18.765Z,25.8
2022-12-04T22:23:21.800Z,24.9
2022-12-04T22:25:24.802Z,20.3
2022-12-04T22:27:31.046Z,24
2022-12-04T22:29:49.914Z,29.6
2022-12-04T22:31:36.962Z,22.8
2022-12-04T22:33:39.877Z,21.6
2022-12-04T22:35:42.926Z,23
2022-12-04T22:37:45.915Z,24.1
2022-12-04T22:39:48.920Z,25.1
2022-12-04T22:43:58.201Z,27.8
2022-12-04T22:50:07.242Z,25.9
2022-12-04T22:52:10.269Z,24.4
2022-12-04T22:54:13.291Z,25.8
2022-12-04T22:56:19.532Z,27.2
2022-12-04T22:58:22.560Z,22
2022-12-04T23:00:25.569Z,24.3
2022-12-04T23:02:28.730Z,24.2
2022-12-04T23:04:31.654Z,20.4
2022-12-04T23:08:37.664Z,24.3
2022-12-04T23:10:43.903Z,24.7
2022-12-04T23:12:46.920Z,22.2
2022-12-04T23:14:49.928Z,22.8
2022-12-04T23:15:53.141Z,22.7
2022-12-04T23:17:56.077Z,20.8
2022-12-04T23:19:59.433Z,23.1
2022-12-04T23:22:02.131Z,21
2022-12-04T23:24:08.349Z,23.4
2022-12-04T23:26:11.362Z,19.6
2022-12-04T23:28:14.391Z,21.6
2022-12-04T23:30:21.378Z,22.6
2022-12-04T23:32:20.424Z,23.3
2022-12-04T23:34:23.424Z,21.3
2022-12-04T23:36:26.468Z,20.5
2022-12-04T23:38:32.702Z,22.6
2022-12-04T23:40:35.694Z,20.8
2022-12-04T23:42:38.731Z,22
2022-12-04T23:44:41.769Z,21.8
2022-12-04T23:48:47.792Z,23.4
2022-12-04T23:50:50.812Z,22.8
2022-12-04T23:52:57.041Z,22.9
2022-12-04T23:55:00.102Z,21.3
2022-12-04T23:57:03.112Z,21.7
2022-12-04T23:59:06.115Z,20.6
